createdAt,value
2019-03-11T00:01:45.435Z,78.17
2019-03-11T00:06:49.670Z,79.06
2019-03-11T00:11:53.903Z,78.70
2019-03-11T00:16:58.139Z,78.73
2019-03-11T00:22:02.388Z,79.16
2019-03-11T00:27:06.608Z,79.27
2019-03-11T00:32:10.833Z,79.00
2019-03-11T00:37:15.068Z,78.77
2019-03-11T00:42:19.326Z,79.08
2019-03-11T00:47:23.604Z,78.96
2019-03-11T00:52:27.807Z,78.60
2019-03-11T00:57:32.056Z,78.43
2019-03-11T01:02:36.320Z,78.42
2019-03-11T01:07:40.539Z,78.52
2019-03-11T01:12:44.783Z,78.62
2019-03-11T01:17:49.011Z,77.72
2019-03-11T01:22:53.246Z,77.88
2019-03-11T01:27:57.467Z,77.60
2019-03-11T01:33:01.734Z,77.50
2019-03-11T01:38:05.968Z,77.77
2019-03-11T01:43:10.195Z,76.93
2019-03-11T01:48:14.436Z,77.13
2019-03-11T01:53:18.663Z,77.67
2019-03-11T01:58:22.891Z,77.36
2019-03-11T02:03:27.111Z,77.50
2019-03-11T02:08:31.352Z,77.33
2019-03-11T02:13:35.582Z,76.97
2019-03-11T02:18:39.860Z,77.04
2019-03-11T02:23:44.091Z,77.46
2019-03-11T02:28:49.853Z,77.01
2019-03-11T02:33:54.056Z,76.61
2019-03-11T02:38:58.291Z,75.87
2019-03-11T02:44:02.518Z,76.73
2019-03-11T02:49:06.786Z,76.98
2019-03-11T02:54:11.003Z,77.51
2019-03-11T02:59:15.257Z,77.65
2019-03-11T03:04:26.736Z,77.83
2019-03-11T03:09:32.150Z,78.57
2019-03-11T03:14:36.514Z,79.28
2019-03-11T03:19:40.802Z,79.35
2019-03-11T03:24:45.592Z,79.32
2019-03-11T03:29:49.843Z,80.32
2019-03-11T03:34:54.052Z,80.34
2019-03-11T03:39:58.696Z,80.94
2019-03-11T03:45:32.495Z,81.11
2019-03-11T03:50:38.381Z,81.60
2019-03-11T03:55:42.616Z,81.50
2019-03-11T04:00:46.862Z,81.56
2019-03-11T04:05:51.083Z,81.13
2019-03-11T04:10:55.331Z,81.58
2019-03-11T04:15:59.658Z,81.43
2019-03-11T04:21:04.081Z,81.80
2019-03-11T04:26:08.310Z,81.67
2019-03-11T04:31:12.651Z,81.73
2019-03-11T04:36:16.880Z,81.95
2019-03-11T04:41:21.107Z,81.65
2019-03-11T04:46:25.360Z,81.52
2019-03-11T04:51:29.666Z,81.66
2019-03-11T04:56:33.924Z,81.99
2019-03-11T05:01:38.189Z,80.46
2019-03-11T05:06:42.419Z,80.84
2019-03-11T05:11:46.654Z,80.47
2019-03-11T05:16:50.891Z,80.60
2019-03-11T05:21:55.122Z,80.40
2019-03-11T05:26:59.346Z,79.59
2019-03-11T05:32:03.596Z,79.77
2019-03-11T05:37:07.964Z,80.15
2019-03-11T05:42:12.189Z,80.00
2019-03-11T05:47:16.430Z,79.99
2019-03-11T05:52:20.655Z,79.44
2019-03-11T05:57:24.894Z,78.62
2019-03-11T06:02:29.133Z,78.35
2019-03-11T06:07:33.359Z,78.01
2019-03-11T06:12:37.597Z,77.04
2019-03-11T06:17:42.047Z,76.19
2019-03-11T06:22:46.226Z,75.70
2019-03-11T06:27:50.447Z,75.36
2019-03-11T06:32:54.695Z,75.30
2019-03-11T06:37:58.951Z,75.06
2019-03-11T06:43:03.196Z,74.63
2019-03-11T06:48:07.424Z,75.08
2019-03-11T06:53:11.643Z,73.77
2019-03-11T06:58:15.864Z,74.78
2019-03-11T07:03:20.094Z,74.54
2019-03-11T07:08:24.431Z,74.06
2019-03-11T07:13:28.796Z,73.96
2019-03-11T07:18:33.031Z,73.78
2019-03-11T07:23:37.566Z,73.92
2019-03-11T07:28:42.045Z,74.08
2019-03-11T07:33:46.344Z,73.06
2019-03-11T07:38:50.579Z,73.25
2019-03-11T07:43:54.839Z,72.74
2019-03-11T07:48:59.080Z,72.63
2019-03-11T07:54:03.316Z,72.66
2019-03-11T07:59:07.538Z,72.33
2019-03-11T08:04:11.809Z,71.84
2019-03-11T08:09:16.513Z,72.27
2019-03-11T08:14:21.040Z,71.16
2019-03-11T08:19:25.259Z,70.88
2019-03-11T08:24:29.479Z,70.21
2019-03-11T08:29:33.706Z,69.84
2019-03-11T08:34:38.004Z,69.51
2019-03-11T08:39:42.255Z,68.28
2019-03-11T08:44:46.753Z,69.19
2019-03-11T08:49:51.117Z,68.29
2019-03-11T08:54:55.376Z,67.88
2019-03-11T08:59:59.600Z,68.25
2019-03-11T09:05:04.169Z,68.01
2019-03-11T09:10:10.780Z,68.47
2019-03-11T09:15:15.137Z,68.16
2019-03-11T09:20:19.597Z,68.04
2019-03-11T09:25:23.815Z,67.52
2019-03-11T09:30:28.046Z,67.53
2019-03-11T09:35:32.267Z,66.63
2019-03-11T09:40:36.486Z,66.46
2019-03-11T09:45:40.719Z,66.43
2019-03-11T09:50:44.944Z,66.10
2019-03-11T09:55:49.183Z,65.22
2019-03-11T10:00:53.415Z,63.04
2019-03-11T10:05:57.647Z,62.50
2019-03-11T10:11:01.906Z,63.03
2019-03-11T10:16:06.213Z,62.75
2019-03-11T10:21:10.438Z,64.09
2019-03-11T10:26:14.821Z,65.02
2019-03-11T10:31:19.084Z,67.07
2019-03-11T10:36:23.425Z,67.54
2019-03-11T10:41:27.723Z,69.42
2019-03-11T10:46:31.959Z,68.99
2019-03-11T10:51:36.195Z,68.24
2019-03-11T10:56:40.433Z,67.61
2019-03-11T11:01:44.688Z,67.18
2019-03-11T11:06:49.016Z,66.75
2019-03-11T11:11:53.267Z,67.01
2019-03-11T11:16:57.494Z,70.76
2019-03-11T11:22:01.710Z,72.49
2019-03-11T11:27:06.145Z,72.53
2019-03-11T11:32:10.364Z,72.34
2019-03-11T11:37:14.659Z,72.67
2019-03-11T11:42:18.912Z,72.95
2019-03-11T11:47:23.156Z,75.74
2019-03-11T11:52:27.415Z,75.83
2019-03-11T11:57:31.667Z,78.09
2019-03-11T12:02:35.903Z,77.59
2019-03-11T12:07:40.187Z,78.12
2019-03-11T12:12:44.410Z,78.63
2019-03-11T12:17:48.805Z,78.52
2019-03-11T12:22:53.128Z,76.95
2019-03-11T12:27:58.309Z,77.21
2019-03-11T12:33:03.067Z,77.60
2019-03-11T12:38:07.327Z,77.43
2019-03-11T12:43:11.577Z,76.52
2019-03-11T12:48:15.806Z,77.39
2019-03-11T12:53:20.158Z,76.34
2019-03-11T12:58:24.378Z,75.35
2019-03-11T13:03:28.616Z,74.94
2019-03-11T13:08:32.857Z,74.88
2019-03-11T13:13:37.103Z,75.12
2019-03-11T13:18:46.342Z,73.37
2019-03-11T13:23:50.572Z,72.59
2019-03-11T13:28:54.811Z,73.15
2019-03-11T13:33:59.117Z,72.39
2019-03-11T13:39:04.479Z,71.92
2019-03-11T13:44:08.711Z,71.46
2019-03-11T13:49:12.947Z,71.77
2019-03-11T13:54:17.182Z,70.26
2019-03-11T13:59:21.415Z,69.82
2019-03-11T14:04:25.698Z,67.76
2019-03-11T14:09:30.007Z,68.19
2019-03-11T14:14:34.666Z,67.94
2019-03-11T14:19:39.649Z,67.57
2019-03-11T14:24:43.874Z,67.20
2019-03-11T14:29:48.147Z,67.56
2019-03-11T14:34:52.408Z,67.82
2019-03-11T14:39:56.670Z,66.81
2019-03-11T14:45:00.915Z,65.89
2019-03-11T14:50:05.409Z,64.06
2019-03-11T14:55:10.075Z,64.14
2019-03-11T15:00:18.336Z,63.48
2019-03-11T15:05:22.150Z,62.83
2019-03-11T15:10:26.365Z,62.21
2019-03-11T15:15:30.610Z,61.77
2019-03-11T15:20:35.819Z,61.10
2019-03-11T15:25:40.054Z,60.63
2019-03-11T15:30:44.319Z,61.16
2019-03-11T15:35:48.557Z,60.35
2019-03-11T15:40:52.802Z,60.64
2019-03-11T15:45:57.075Z,60.67
2019-03-11T15:51:01.359Z,60.61
2019-03-11T15:56:05.604Z,60.77
2019-03-11T16:01:11.049Z,61.05
2019-03-11T16:06:15.326Z,61.68
2019-03-11T16:11:19.577Z,62.24
2019-03-11T16:16:26.077Z,62.34
2019-03-11T16:21:30.312Z,62.64
2019-03-11T16:26:34.681Z,62.87
2019-03-11T16:31:38.932Z,63.37
2019-03-11T16:36:43.157Z,63.79
2019-03-11T16:41:47.393Z,63.97
2019-03-11T16:46:51.628Z,64.72
2019-03-11T16:51:55.855Z,64.85
2019-03-11T16:57:00.093Z,65.48
2019-03-11T17:02:04.483Z,65.82
2019-03-11T17:07:08.747Z,66.10
2019-03-11T17:12:13.068Z,65.83
2019-03-11T17:17:17.305Z,65.99
2019-03-11T17:22:21.728Z,66.07
2019-03-11T17:27:25.966Z,65.94
2019-03-11T17:32:30.219Z,66.24
2019-03-11T17:37:34.443Z,66.67
2019-03-11T17:42:38.727Z,65.63
2019-03-11T17:47:42.975Z,66.19
2019-03-11T17:52:47.510Z,71.51
2019-03-11T17:57:51.953Z,73.12
2019-03-11T18:02:56.593Z,73.26
2019-03-11T18:08:00.834Z,73.98
2019-03-11T18:13:05.113Z,74.74
2019-03-11T18:18:09.380Z,73.36
2019-03-11T18:23:13.899Z,74.62
2019-03-11T18:28:18.204Z,75.24
2019-03-11T18:33:22.645Z,77.36
2019-03-11T18:38:27.281Z,76.79
2019-03-11T18:43:42.310Z,77.84
2019-03-11T18:48:38.054Z,77.94
2019-03-11T18:53:42.301Z,78.02
2019-03-11T18:58:46.655Z,77.94
2019-03-11T19:03:51.049Z,77.92
2019-03-11T19:08:55.261Z,80.12
2019-03-11T19:13:59.513Z,80.31
2019-03-11T19:19:03.832Z,80.05
2019-03-11T19:24:08.231Z,80.33
2019-03-11T19:29:12.564Z,79.47
2019-03-11T19:34:16.957Z,79.84
2019-03-11T19:39:21.322Z,78.94
2019-03-11T19:44:25.685Z,79.64
2019-03-11T19:49:30.327Z,79.25
2019-03-11T19:54:34.878Z,79.87
2019-03-11T19:59:39.269Z,80.69
2019-03-11T20:04:43.657Z,80.72
2019-03-11T20:09:48.327Z,80.42
2019-03-11T20:14:52.910Z,80.64
2019-03-11T20:19:57.215Z,80.71
2019-03-11T20:25:02.082Z,81.18
2019-03-11T20:30:08.712Z,81.48
2019-03-11T20:35:13.140Z,81.50
2019-03-11T20:40:17.651Z,81.53
2019-03-11T20:45:22.158Z,81.64
2019-03-11T20:50:26.425Z,82.00
2019-03-11T20:55:30.728Z,81.79
2019-03-11T21:00:35.035Z,81.59
2019-03-11T21:05:39.528Z,81.57
2019-03-11T21:10:43.843Z,81.48
2019-03-11T21:15:48.143Z,81.16
2019-03-11T21:21:04.103Z,80.99
2019-03-11T21:25:58.412Z,80.85
2019-03-11T21:31:02.618Z,81.55
2019-03-11T21:36:06.905Z,81.83
2019-03-11T21:41:11.194Z,81.64
2019-03-11T21:46:15.798Z,82.27
2019-03-11T21:51:20.018Z,82.29
2019-03-11T21:56:24.306Z,82.20
2019-03-11T22:01:28.535Z,82.74
2019-03-11T22:06:32.798Z,82.70
2019-03-11T22:11:37.037Z,82.46
2019-03-11T22:16:41.290Z,82.76
2019-03-11T22:21:45.580Z,82.48
2019-03-11T22:26:49.841Z,83.03
2019-03-11T22:31:54.091Z,83.41
2019-03-11T22:36:58.331Z,83.64
2019-03-11T22:42:02.554Z,83.58
2019-03-11T22:47:06.792Z,83.70
2019-03-11T22:52:11.008Z,83.74
2019-03-11T22:57:15.265Z,83.49
2019-03-11T23:02:19.503Z,83.61
2019-03-11T23:07:23.765Z,83.60
2019-03-11T23:12:28.227Z,83.81
2019-03-11T23:17:32.489Z,83.58
2019-03-11T23:22:37.105Z,84.04
2019-03-11T23:27:41.543Z,83.80
2019-03-11T23:32:45.770Z,83.91
2019-03-11T23:37:50.072Z,83.84
2019-03-11T23:42:54.330Z,83.91
2019-03-11T23:47:58.811Z,84.19
2019-03-11T23:53:03.056Z,84.09
2019-03-11T23:58:07.320Z,83.93
